Time;durP1;ratioP1;P1;durP2;ratioP2;P2;SDS_P1;SDS_P2;PMS_P1;PMS_P2;Temp;Humidity;BMP_temperature;BMP_pressure;BME280_temperature;BME280_humidity;BME280_pressure;Samples;Min_cycle;Max_cycle;Signal;HPM_P1;HPM_P2
2022/04/27 00:01:15;;;;;;;0.30;0.20;;;;;;;8.23;100.00;100687.78;5075060;28;20481;-53
2022/04/27 00:03:42;;;;;;;0.30;0.20;;;;;;;8.36;100.00;100691.13;5065675;28;20958;-53
2022/04/27 00:06:09;;;;;;;0.30;0.20;;;;;;;8.24;100.00;100682.44;5075496;28;20953;-53
2022/04/27 00:08:37;;;;;;;0.30;0.20;;;;;;;8.25;100.00;100683.31;5076499;28;20489;-53
2022/04/27 00:11:04;;;;;;;0.30;0.20;;;;;;;8.36;100.00;100681.44;5075481;28;20919;-53
2022/04/27 00:13:31;;;;;;;1.70;1.60;;;;;;;8.36;100.00;100683.19;5075751;28;20508;-53
2022/04/27 00:15:57;;;;;;;0.30;0.20;;;;;;;8.27;100.00;100684.19;5075170;28;20446;-53
2022/04/27 00:18:24;;;;;;;0.30;0.20;;;;;;;8.12;100.00;100692.31;5075515;28;20476;-53
2022/04/27 00:20:51;;;;;;;0.40;0.30;;;;;;;8.20;100.00;100682.47;5075349;28;20501;-53
2022/04/27 00:23:17;;;;;;;0.47;0.47;;;;;;;8.15;100.00;100684.31;5073041;28;21008;-53
2022/04/27 00:25:44;;;;;;;0.30;0.20;;;;;;;8.08;100.00;100682.63;5073252;28;20442;-53
2022/04/27 00:28:11;;;;;;;0.40;0.30;;;;;;;8.02;100.00;100684.47;5075363;28;20489;-53
2022/04/27 00:30:38;;;;;;;0.30;0.20;;;;;;;7.88;100.00;100685.53;5075440;28;20453;-53
2022/04/27 00:33:04;;;;;;;0.30;0.20;;;;;;;7.80;100.00;100687.38;5075154;28;21027;-54
2022/04/27 00:35:31;;;;;;;0.30;0.20;;;;;;;7.70;100.00;100687.47;5075416;28;20478;-55
2022/04/27 00:37:57;;;;;;;0.30;0.20;;;;;;;7.67;100.00;100684.84;5074344;28;20495;-55
2022/04/27 00:40:24;;;;;;;0.30;0.20;;;;;;;7.54;100.00;100688.53;5075041;28;20453;-53
2022/04/27 00:42:50;;;;;;;0.30;0.20;;;;;;;7.58;100.00;100686.72;5075594;28;20499;-53
2022/04/27 00:45:17;;;;;;;0.30;0.20;;;;;;;7.46;100.00;100692.13;5075191;28;20470;-53
2022/04/27 00:47:44;;;;;;;0.40;0.30;;;;;;;7.43;100.00;100701.84;5075260;28;20474;-54
2022/04/27 00:50:11;;;;;;;0.30;0.20;;;;;;;7.37;100.00;100701.91;5075024;28;20961;-53
2022/04/27 00:52:38;;;;;;;0.30;0.20;;;;;;;7.20;100.00;100700.28;5074685;28;20979;-53
2022/04/27 00:55:05;;;;;;;0.30;0.20;;;;;;;7.19;100.00;100701.19;5063071;28;20464;-53
2022/04/27 00:57:34;;;;;;;0.30;0.20;;;;;;;7.08;100.00;100702.13;5074748;28;20475;-53
2022/04/27 01:00:00;;;;;;;0.30;0.20;;;;;;;6.81;100.00;100702.34;5074830;28;20442;-53
2022/04/27 01:02:27;;;;;;;0.40;0.30;;;;;;;6.87;100.00;100701.44;5064416;28;20466;-53
2022/04/27 01:04:54;;;;;;;0.60;0.60;;;;;;;6.86;100.00;100710.25;5074458;28;20454;-55
2022/04/27 01:07:21;;;;;;;0.30;0.20;;;;;;;6.76;100.00;100707.66;5075230;28;20450;-53
2022/04/27 01:09:47;;;;;;;0.30;0.20;;;;;;;6.76;100.00;100707.66;5074008;28;20486;-54
2022/04/27 01:12:15;;;;;;;0.30;0.20;;;;;;;6.88;100.00;100706.72;5075514;28;20446;-54
2022/04/27 01:14:50;;;;;;;0.30;0.20;;;;;;;6.69;100.00;100703.28;5074908;28;20828;-53
2022/04/27 01:17:20;;;;;;;0.30;0.20;;;;;;;6.81;100.00;100712.91;5074705;28;20441;-53
2022/04/27 01:19:47;;;;;;;0.30;0.20;;;;;;;6.51;100.00;100709.56;5074755;28;20442;-54
2022/04/27 01:22:13;;;;;;;0.30;0.20;;;;;;;6.44;100.00;100713.13;5074903;28;20472;-53
2022/04/27 01:24:40;;;;;;;0.30;0.20;;;;;;;6.24;100.00;100715.84;5069643;28;20453;-53
2022/04/27 01:27:07;;;;;;;0.30;0.20;;;;;;;6.22;100.00;100711.47;5075082;28;20858;-54
2022/04/27 01:29:33;;;;;;;0.30;0.20;;;;;;;6.14;100.00;100715.88;5075309;28;20889;-54
2022/04/27 01:32:01;;;;;;;2.40;2.30;;;;;;;6.05;100.00;100710.66;5075514;28;20942;-53
2022/04/27 01:34:28;;;;;;;0.30;0.20;;;;;;;6.12;100.00;100707.09;5074187;28;20449;-54
2022/04/27 01:37:59;;;;;;;1.33;1.07;;;;;;;5.88;100.00;100700.09;5075644;28;20446;-53
2022/04/27 01:39:43;;;;;;;0.30;0.20;;;;;;;5.94;100.00;100705.41;5075672;28;20856;-54
2022/04/27 01:42:10;;;;;;;0.30;0.20;;;;;;;6.04;100.00;100701.00;5074959;28;20457;-53
2022/04/27 01:44:37;;;;;;;0.30;0.20;;;;;;;6.27;100.00;100704.41;5074637;28;20446;-54
2022/04/27 01:47:04;;;;;;;0.60;0.60;;;;;;;6.20;100.00;100703.56;5074250;28;20822;-54
2022/04/27 01:49:31;;;;;;;0.60;0.60;;;;;;;6.18;100.00;100702.69;5074642;28;20529;-55
2022/04/27 01:54:43;;;;;;;0.30;0.20;;;;;;;5.72;100.00;100709.81;5062810;28;20447;-54
2022/04/27 01:57:12;;;;;;;0.30;0.20;;;;;;;5.76;100.00;100716.00;5074942;28;20461;-54
2022/04/27 01:59:41;;;;;;;0.30;0.20;;;;;;;5.75;100.00;100723.00;5074358;28;21009;-55
2022/04/27 02:02:09;;;;;;;0.30;0.20;;;;;;;5.66;100.00;100730.94;5066634;28;20492;-55
2022/04/27 02:04:39;;;;;;;4.63;2.20;;;;;;;5.62;100.00;100729.19;5071383;28;20525;-55
2022/04/27 02:07:06;;;;;;;0.30;0.20;;;;;;;5.65;100.00;100724.78;5074773;28;20450;-55
2022/04/27 02:09:32;;;;;;;0.30;0.10;;;;;;;5.69;100.00;100725.66;5074539;28;20490;-55
2022/04/27 02:11:59;;;;;;;0.30;0.20;;;;;;;5.70;100.00;100722.13;5074660;28;20446;-55
2022/04/27 02:14:26;;;;;;;0.50;0.50;;;;;;;5.55;100.00;100728.31;5074476;28;20454;-55
2022/04/27 02:16:52;;;;;;;0.30;0.20;;;;;;;5.31;100.00;100723.94;5074616;28;20566;-56
2022/04/27 02:19:21;;;;;;;0.30;0.20;;;;;;;5.31;100.00;100733.59;5074124;28;20471;-55
2022/04/27 02:21:47;;;;;;;0.30;0.20;;;;;;;5.22;100.00;100733.63;5074848;28;20454;-55
2022/04/27 02:24:14;;;;;;;0.30;0.20;;;;;;;5.25;100.00;100739.75;5069250;28;20453;-55
2022/04/27 02:26:42;;;;;;;0.30;0.20;;;;;;;5.29;100.00;100738.00;5073653;28;20450;-55
2022/04/27 02:29:09;;;;;;;0.30;0.30;;;;;;;5.21;100.00;100742.41;5074381;28;20489;-55
2022/04/27 02:31:36;;;;;;;0.30;0.20;;;;;;;5.17;100.00;100745.88;5074524;28;20454;-55
2022/04/27 02:34:03;;;;;;;0.30;0.20;;;;;;;5.00;100.00;100748.50;5074452;28;20844;-55
2022/04/27 02:36:30;;;;;;;0.30;0.20;;;;;;;4.97;100.00;100752.03;5074544;28;20527;-54
2022/04/27 02:38:57;;;;;;;0.60;0.60;;;;;;;4.93;100.00;100754.63;5073097;28;20473;-55
2022/04/27 02:41:23;;;;;;;0.30;0.20;;;;;;;5.05;100.00;100752.91;5074279;28;20434;-55
2022/04/27 02:43:50;;;;;;;1.90;0.53;;;;;;;5.11;100.00;100757.31;5047760;28;20450;-55
2022/04/27 02:46:16;;;;;;;0.40;0.20;;;;;;;5.32;100.00;100759.06;5072403;28;20992;-55
2022/04/27 02:51:48;;;;;;;0.30;0.20;;;;;;;5.29;100.00;100749.41;5073676;28;20498;-55
2022/04/27 02:51:48;;;;;;;0.73;0.73;;;;;;;5.30;100.00;100758.19;5073582;28;20446;-55
2022/04/27 02:54:20;;;;;;;0.30;0.20;;;;;;;5.22;100.00;100760.84;5063473;28;20504;-55
2022/04/27 02:56:47;;;;;;;0.30;0.20;;;;;;;4.99;100.00;100763.44;5074268;28;20450;-55
2022/04/27 02:59:15;;;;;;;1.47;1.37;;;;;;;5.07;100.00;100763.44;5074089;28;20970;-55
2022/04/27 03:01:42;;;;;;;0.30;0.20;;;;;;;4.91;100.00;100770.44;5069432;28;20458;-55
2022/04/27 03:04:10;;;;;;;0.30;0.20;;;;;;;5.05;100.00;100773.97;5067084;28;20450;-55
2022/04/27 03:06:36;;;;;;;0.30;0.20;;;;;;;5.04;100.00;100756.41;5048041;28;20449;-54
2022/04/27 03:09:03;;;;;;;0.30;0.20;;;;;;;5.06;100.00;100761.69;5073370;28;20489;-55
2022/04/27 03:11:30;;;;;;;0.50;0.50;;;;;;;5.06;100.00;100770.47;5074263;28;20449;-55
2022/04/27 03:13:56;;;;;;;0.30;0.20;;;;;;;5.06;100.00;100773.09;5072525;28;20453;-54
2022/04/27 03:16:23;;;;;;;0.30;0.20;;;;;;;5.19;100.00;100770.47;5074091;28;20446;-55
2022/04/27 03:18:50;;;;;;;1.27;0.93;;;;;;;5.25;100.00;100771.38;5073791;28;20473;-55
2022/04/27 03:21:16;;;;;;;0.40;0.40;;;;;;;5.08;100.00;100770.50;5073603;28;20485;-55
2022/04/27 03:23:44;;;;;;;1.30;1.20;;;;;;;4.72;100.00;100764.25;5068827;28;20446;-54
2022/04/27 03:26:11;;;;;;;0.30;0.30;;;;;;;4.70;100.00;100762.50;5074205;28;20489;-56
2022/04/27 03:28:37;;;;;;;0.30;0.20;;;;;;;4.73;100.00;100768.66;5073753;28;20466;-58
2022/04/27 03:31:04;;;;;;;0.30;0.20;;;;;;;4.75;100.00;100759.00;5072774;28;20457;-55
2022/04/27 03:33:31;;;;;;;0.30;0.20;;;;;;;4.75;100.00;100764.25;5073936;28;20888;-55
2022/04/27 03:35:57;;;;;;;0.30;0.10;;;;;;;4.57;100.00;100772.09;5074241;28;20454;-55
2022/04/27 03:38:24;;;;;;;0.30;0.20;;;;;;;4.52;100.00;100772.94;5073679;28;20986;-55
2022/04/27 03:40:50;;;;;;;0.30;0.20;;;;;;;4.63;100.00;100765.97;5074274;28;20543;-55
2022/04/27 03:43:17;;;;;;;1.70;1.43;;;;;;;4.41;100.00;100780.81;5073473;28;20450;-56
2022/04/27 03:45:44;;;;;;;0.30;0.20;;;;;;;4.45;100.00;100777.31;5074191;28;20449;-54
2022/04/27 03:48:10;;;;;;;1.30;1.30;;;;;;;4.51;100.00;100782.59;5073226;28;20477;-55
2022/04/27 03:50:37;;;;;;;0.30;0.30;;;;;;;4.56;100.00;100791.41;5073637;28;20896;-54
2022/04/27 03:53:04;;;;;;;0.30;0.20;;;;;;;4.35;100.00;100789.56;5072735;28;20445;-56
2022/04/27 03:55:33;;;;;;;0.40;0.40;;;;;;;4.42;100.00;100796.63;5062560;28;20464;-55
2022/04/27 03:58:04;;;;;;;0.30;0.20;;;;;;;4.20;100.00;100797.38;5073160;28;20553;-55
2022/04/27 04:00:32;;;;;;;0.30;0.20;;;;;;;4.33;100.00;100798.31;5073642;28;20466;-54
2022/04/27 04:03:00;;;;;;;0.30;0.20;;;;;;;4.30;100.00;100795.69;5061547;28;20541;-55
2022/04/27 04:05:27;;;;;;;0.30;0.20;;;;;;;4.27;100.00;100804.44;5073379;28;20450;-54
2022/04/27 04:07:55;;;;;;;0.30;0.20;;;;;;;4.15;100.00;100796.47;5073387;28;20473;-55
2022/04/27 04:10:21;;;;;;;0.30;0.20;;;;;;;4.16;100.00;100806.13;5073855;28;20485;-55
2022/04/27 04:12:48;;;;;;;0.30;0.20;;;;;;;4.19;100.00;100802.63;5074173;28;20446;-55
2022/04/27 04:15:15;;;;;;;0.30;0.20;;;;;;;4.18;100.00;100806.13;5074148;28;20951;-55
2022/04/27 04:17:45;;;;;;;0.93;0.83;;;;;;;4.11;100.00;100807.84;5074313;28;20474;-55
2022/04/27 04:20:13;;;;;;;0.67;0.67;;;;;;;4.33;100.00;100804.47;5074343;28;20445;-55
2022/04/27 04:22:41;;;;;;;0.30;0.20;;;;;;;4.24;100.00;100807.03;5074561;28;20477;-55
2022/04/27 04:30:38;;;;;;;0.30;0.17;;;;;;;4.76;100.00;100820.44;5076299;28;20485;-55
2022/04/27 04:33:06;;;;;;;0.30;0.20;;;;;;;4.56;100.00;100827.38;5076112;28;20446;-55
2022/04/27 04:35:33;;;;;;;0.30;0.20;;;;;;;4.57;100.00;100818.63;5076591;28;20442;-56
2022/04/27 04:38:00;;;;;;;1.03;0.70;;;;;;;4.38;100.00;100833.41;5075960;28;20515;-56
2022/04/27 04:40:27;;;;;;;0.30;0.10;;;;;;;4.44;100.00;100829.09;5076859;28;21000;-56
2022/04/27 04:42:53;;;;;;;0.30;0.20;;;;;;;4.38;100.00;100834.28;5077571;28;20523;-54
2022/04/27 04:45:20;;;;;;;0.30;0.20;;;;;;;4.55;100.00;100837.03;5077359;28;20450;-58
2022/04/27 04:47:47;;;;;;;1.03;1.03;;;;;;;4.52;100.00;100836.13;5077263;28;20477;-54
2022/04/27 04:50:20;;;;;;;0.30;0.20;;;;;;;4.45;100.00;100844.00;5076864;28;20493;-54
2022/04/27 04:52:46;;;;;;;0.30;0.20;;;;;;;4.67;100.00;100834.47;5077267;28;20564;-54
2022/04/27 04:55:13;;;;;;;0.30;0.20;;;;;;;4.73;100.00;100847.63;5063474;28;20450;-56
2022/04/27 04:57:40;;;;;;;0.30;0.20;;;;;;;4.93;100.00;100847.69;5076370;28;20450;-55
2022/04/27 05:00:09;;;;;;;0.30;0.20;;;;;;;5.21;100.00;100851.31;5049233;28;20450;-56
2022/04/27 05:02:36;;;;;;;0.30;0.20;;;;;;;5.48;100.00;100855.75;5063711;28;20558;-56
2022/04/27 05:05:04;;;;;;;0.30;0.20;;;;;;;5.90;100.00;100857.56;5075504;28;20450;-56
2022/04/27 05:07:31;;;;;;;0.30;0.20;;;;;;;6.15;100.00;100858.41;5075382;28;20802;-56
2022/04/27 05:09:58;;;;;;;0.30;0.20;;;;;;;6.58;100.00;100863.59;5075492;28;20558;-56
2022/04/27 05:12:25;;;;;;;1.57;0.93;;;;;;;6.72;100.00;100861.78;5075420;28;20500;-55
2022/04/27 05:14:52;;;;;;;0.30;0.17;;;;;;;6.92;100.00;100856.41;5075320;28;20445;-55
2022/04/27 05:17:19;;;;;;;0.30;0.20;;;;;;;7.05;100.00;100855.47;5075244;28;20489;-55
2022/04/27 05:19:48;;;;;;;0.30;0.20;;;;;;;7.32;100.00;100865.00;5075337;28;20522;-55
2022/04/27 05:22:15;;;;;;;0.30;0.20;;;;;;;7.12;100.00;100866.88;5074728;28;20450;-55
2022/04/27 05:24:42;;;;;;;0.30;0.20;;;;;;;6.96;100.00;100866.06;5069778;28;20446;-55
2022/04/27 05:27:08;;;;;;;0.30;0.30;;;;;;;6.97;100.00;100882.81;5074966;28;20446;-55
2022/04/27 05:32:20;;;;;;;0.30;0.20;;;;;;;7.23;100.00;100886.22;5074752;28;20457;-56
2022/04/27 05:34:47;;;;;;;0.30;0.20;;;;;;;7.51;100.00;100881.63;5074923;28;20446;-56
2022/04/27 05:37:13;;;;;;;0.30;0.20;;;;;;;7.86;100.00;100884.03;5073991;28;20461;-56
2022/04/27 05:39:40;;;;;;;0.50;0.50;;;;;;;8.19;100.00;100888.16;5073150;28;20462;-56
2022/04/27 05:42:07;;;;;;;1.80;1.27;;;;;;;8.21;100.00;100891.66;5073555;28;20450;-56
2022/04/27 05:44:33;;;;;;;0.30;0.20;;;;;;;8.47;100.00;100891.44;5074066;28;20507;-55
2022/04/27 05:47:01;;;;;;;0.30;0.20;;;;;;;8.47;100.00;100894.09;5074286;28;20457;-55
2022/04/27 05:49:27;;;;;;;0.83;0.83;;;;;;;8.58;100.00;100892.22;5074062;28;20566;-55
2022/04/27 05:51:54;;;;;;;0.60;0.60;;;;;;;8.70;100.00;100900.94;5074128;28;20499;-57
2022/04/27 05:54:21;;;;;;;0.30;0.20;;;;;;;8.80;100.00;100897.28;5062765;28;20450;-55
2022/04/27 05:56:47;;;;;;;0.30;0.20;;;;;;;8.91;100.00;100900.69;5072942;28;20482;-56
2022/04/27 05:59:14;;;;;;;0.30;0.20;;;;;;;9.23;100.00;100908.25;5073944;28;20477;-56
2022/04/27 06:01:41;;;;;;;0.30;0.20;;;;;;;9.18;100.00;100905.66;5069120;28;20994;-56
2022/04/27 06:04:08;;;;;;;0.30;0.20;;;;;;;9.22;100.00;100909.13;5066848;28;20450;-56
2022/04/27 06:06:35;;;;;;;0.30;0.20;;;;;;;9.54;100.00;100913.13;5073682;28;20454;-56
2022/04/27 06:09:02;;;;;;;0.30;0.20;;;;;;;9.57;100.00;100913.06;5073514;28;20466;-56
2022/04/27 06:11:29;;;;;;;1.27;1.27;;;;;;;9.69;100.00;100923.50;5073523;28;20876;-56
2022/04/27 06:13:56;;;;;;;7.43;2.33;;;;;;;9.54;100.00;100924.59;5073558;28;20503;-56
2022/04/27 06:16:24;;;;;;;0.30;0.20;;;;;;;9.65;100.00;100928.00;5073681;28;20458;-56
2022/04/27 06:18:50;;;;;;;0.30;0.20;;;;;;;9.65;100.00;100922.69;5072990;28;20476;-56
2022/04/27 06:21:17;;;;;;;0.40;0.40;;;;;;;9.72;100.00;100928.75;5073898;28;20504;-56
2022/04/27 06:23:44;;;;;;;6.67;2.97;;;;;;;9.71;100.00;100934.97;5067468;28;20865;-55
2022/04/27 06:26:11;;;;;;;1.63;1.23;;;;;;;9.65;100.00;100932.44;5073164;28;20826;-56
2022/04/27 06:28:38;;;;;;;0.40;0.37;;;;;;;9.54;100.00;100932.56;5072726;28;20520;-56
2022/04/27 06:31:04;;;;;;;1.03;0.97;;;;;;;9.23;100.00;100936.53;5073245;28;20498;-56
2022/04/27 06:33:31;;;;;;;0.30;0.20;;;;;;;9.74;100.00;100929.66;5073115;28;20454;-56
2022/04/27 06:36:01;;;;;;;0.40;0.40;;;;;;;9.89;100.00;100932.06;5072797;28;20446;-55
2022/04/27 06:38:27;;;;;;;0.30;0.20;;;;;;;10.05;100.00;100927.38;5072531;28;20861;-55
2022/04/27 06:41:14;;;;;;;0.60;0.57;;;;;;;9.80;100.00;100935.72;5072815;28;20448;-55
2022/04/27 06:43:41;;;;;;;0.33;0.20;;;;;;;9.93;100.00;100944.38;5071602;28;20469;-56
2022/04/27 06:46:08;;;;;;;1.97;1.80;;;;;;;9.98;100.00;100941.66;5072381;28;20961;-56
2022/04/27 06:48:34;;;;;;;0.40;0.30;;;;;;;10.07;100.00;100944.16;5072358;28;20557;-56
2022/04/27 06:51:01;;;;;;;0.60;0.60;;;;;;;9.86;100.00;100939.19;5072230;28;20517;-55
2022/04/27 06:53:28;;;;;;;0.40;0.33;;;;;;;10.21;100.00;100942.19;5068093;28;20795;-55
2022/04/27 06:56:00;;;;;;;0.40;0.40;;;;;;;10.48;100.00;100935.53;5065478;28;20477;-55
2022/04/27 06:58:27;;;;;;;0.30;0.20;;;;;;;10.52;100.00;100939.00;5072218;28;20507;-55
2022/04/27 07:00:54;;;;;;;0.30;0.20;;;;;;;10.54;100.00;100942.50;5072353;28;20462;-56
2022/04/27 07:03:20;;;;;;;0.40;0.40;;;;;;;11.07;100.00;100948.59;5060496;28;20862;-56
2022/04/27 07:05:47;;;;;;;0.40;0.30;;;;;;;10.98;100.00;100947.91;5072350;28;20477;-56
2022/04/27 07:08:14;;;;;;;0.40;0.40;;;;;;;11.07;100.00;100945.94;5045914;28;20500;-56
2022/04/27 07:10:40;;;;;;;0.40;0.30;;;;;;;11.45;100.00;100947.81;5072659;28;20559;-56
2022/04/27 07:13:07;;;;;;;0.30;0.20;;;;;;;11.30;100.00;100951.69;5072640;28;20830;-56
2022/04/27 07:15:34;;;;;;;0.40;0.30;;;;;;;11.35;100.00;100954.22;5059467;28;20487;-56
2022/04/27 07:18:00;;;;;;;0.30;0.20;;;;;;;11.76;100.00;100950.66;5056635;28;20469;-56
2022/04/27 07:20:27;;;;;;;1.53;1.53;;;;;;;12.05;100.00;100948.22;5072601;28;20445;-56
2022/04/27 07:22:54;;;;;;;0.40;0.20;;;;;;;12.36;100.00;100951.03;5072855;28;20499;-56
2022/04/27 07:25:20;;;;;;;3.00;1.53;;;;;;;12.20;100.00;100959.41;5067475;28;20457;-56
2022/04/27 07:27:47;;;;;;;1.57;1.37;;;;;;;12.11;100.00;100952.53;5072535;28;21039;-56
2022/04/27 07:30:14;;;;;;;1.33;0.93;;;;;;;12.55;100.00;100962.09;5072198;28;20481;-56
2022/04/27 07:32:41;;;;;;;2.63;1.90;;;;;;;12.76;100.00;100958.00;5072994;28;20454;-56
2022/04/27 07:35:08;;;;;;;0.97;0.97;;;;;;;12.68;100.00;100958.19;5072092;28;20950;-56
2022/04/27 07:37:38;;;;;;;0.57;0.57;;;;;;;12.58;100.00;100954.00;5072528;28;20510;-56
2022/04/27 07:40:10;;;;;;;1.57;0.50;;;;;;;12.98;100.00;100968.94;5072150;28;20453;-56
2022/04/27 07:42:37;;;;;;;0.97;0.97;;;;;;;12.85;100.00;100962.19;5072198;28;20843;-56
2022/04/27 07:45:05;;;;;;;0.30;0.30;;;;;;;12.98;100.00;100971.63;5071833;28;20950;-56
2022/04/27 07:50:16;;;;;;;0.30;0.20;;;;;;;13.05;100.00;100966.06;5010312;28;20538;-50
2022/04/27 07:52:43;;;;;;;0.30;0.20;;;;;;;13.38;100.00;100966.06;5012082;28;20459;-50
2022/04/27 07:55:11;;;;;;;0.40;0.40;;;;;;;13.19;99.36;100972.84;5017828;28;20897;-49
2022/04/27 07:57:38;;;;;;;0.40;0.30;;;;;;;13.02;100.00;100981.31;5018942;28;21076;-48
2022/04/27 08:00:08;;;;;;;0.40;0.40;;;;;;;13.04;97.24;100977.69;5012041;28;20452;-49
2022/04/27 08:02:38;;;;;;;4.23;2.20;;;;;;;13.25;95.62;100984.22;5012279;28;20530;-50
2022/04/27 08:05:05;;;;;;;0.30;0.20;;;;;;;13.44;94.14;100983.72;5015922;28;20452;-50
2022/04/27 08:07:37;;;;;;;0.87;0.87;;;;;;;13.52;95.43;100982.56;5015776;28;20462;-49
2022/04/27 08:10:19;;;;;;;0.37;0.33;;;;;;;13.49;95.50;100988.00;5015487;28;20488;-51
2022/04/27 08:12:48;;;;;;;0.30;0.20;;;;;;;13.54;94.56;100987.84;5015751;28;20454;-51
2022/04/27 08:15:17;;;;;;;0.83;0.83;;;;;;;13.79;93.79;100990.66;5014526;28;20459;-50
2022/04/27 08:18:01;;;;;;;1.13;1.13;;;;;;;13.42;93.36;100989.06;5015487;28;20452;-51
2022/04/27 08:23:31;;;;;;;0.30;0.30;;;;;;;13.91;93.71;100990.28;5015587;28;20444;-49
2022/04/27 08:26:01;;;;;;;0.40;0.30;;;;;;;13.78;92.91;100999.59;5015661;28;20510;-49
2022/04/27 08:28:28;;;;;;;0.30;0.30;;;;;;;13.72;92.98;101002.47;5015768;28;20511;-51
2022/04/27 08:30:56;;;;;;;0.30;0.20;;;;;;;13.99;91.91;100998.09;5015107;28;20542;-52
2022/04/27 08:33:23;;;;;;;0.30;0.20;;;;;;;13.88;91.86;100998.41;5014167;28;20456;-53
2022/04/27 08:35:50;;;;;;;1.73;1.73;;;;;;;13.91;92.37;101000.97;5002344;28;21011;-51
2022/04/27 08:38:37;;;;;;;0.40;0.30;;;;;;;14.16;92.86;101011.78;5015265;28;20552;-51
2022/04/27 08:41:04;;;;;;;0.30;0.20;;;;;;;14.20;91.37;101013.44;5015212;28;20451;-51
2022/04/27 08:43:31;;;;;;;1.90;1.77;;;;;;;13.95;92.11;101007.97;5015055;28;20522;-51
2022/04/27 08:46:02;;;;;;;0.60;0.60;;;;;;;14.10;91.10;101006.63;5014938;28;20817;-51
2022/04/27 08:48:30;;;;;;;0.30;0.20;;;;;;;14.24;91.79;101009.72;5014986;28;20491;-50
2022/04/27 08:50:57;;;;;;;0.40;0.40;;;;;;;14.16;90.23;101001.09;5015026;28;20546;-53
2022/04/27 08:53:25;;;;;;;0.60;0.57;;;;;;;14.11;90.30;101011.03;5014744;28;21007;-53
2022/04/27 08:55:53;;;;;;;0.80;0.80;;;;;;;14.40;91.10;101002.97;5013695;28;20452;-52
2022/04/27 08:58:22;;;;;;;0.30;0.20;;;;;;;14.46;89.68;101007.28;5014591;28;20984;-53
2022/04/27 09:01:09;;;;;;;0.40;0.40;;;;;;;14.51;89.21;101014.22;5013636;28;20537;-53
2022/04/27 09:03:38;;;;;;;0.50;0.50;;;;;;;14.80;89.89;100996.28;5003365;28;20873;-52
2022/04/27 09:06:11;;;;;;;0.40;0.20;;;;;;;14.93;90.77;101004.75;5014579;28;20457;-53
2022/04/27 09:08:40;;;;;;;0.30;0.20;;;;;;;14.86;88.45;101013.97;5014298;28;21009;-53
2022/04/27 09:11:14;;;;;;;1.20;1.10;;;;;;;14.52;89.42;101017.75;5014332;28;21094;-53
2022/04/27 09:13:45;;;;;;;0.30;0.20;;;;;;;14.87;90.55;101013.03;5014530;28;20472;-53
2022/04/27 09:16:12;;;;;;;0.50;0.50;;;;;;;14.63;89.07;101015.59;5014322;28;20485;-53
2022/04/27 09:21:55;;;;;;;1.40;1.40;;;;;;;14.81;88.08;101016.81;5004533;28;20480;-52
2022/04/27 09:24:21;;;;;;;0.30;0.20;;;;;;;14.92;88.46;101017.28;5014493;28;20449;-54
2022/04/27 09:27:12;;;;;;;0.40;0.30;;;;;;;15.54;86.99;101011.47;5014087;28;20448;-53
2022/04/27 09:29:40;;;;;;;0.67;0.67;;;;;;;15.30;86.93;101015.91;5003658;28;20526;-53
2022/04/27 09:32:08;;;;;;;1.17;1.17;;;;;;;15.26;85.90;101008.94;5014068;28;20500;-54
2022/04/27 09:34:45;;;;;;;0.30;0.20;;;;;;;15.70;85.36;101015.34;5014231;28;20506;-52
2022/04/27 09:37:21;;;;;;;0.40;0.30;;;;;;;15.95;85.30;101009.91;5029271;28;20487;-53
2022/04/27 09:40:11;;;;;;;0.70;0.70;;;;;;;15.37;85.06;101019.28;5029046;28;20907;-53
2022/04/27 09:42:45;;;;;;;0.30;0.20;;;;;;;15.28;83.22;101016.91;5029348;28;20444;-53
2022/04/27 09:45:18;;;;;;;0.43;0.43;;;;;;;15.27;84.03;101025.88;5013947;28;20457;-53
2022/04/27 09:47:55;;;;;;;0.40;0.30;;;;;;;15.71;83.73;101021.59;5013644;28;20507;-54
2022/04/27 09:50:21;;;;;;;0.30;0.20;;;;;;;15.74;83.49;101028.63;5013604;28;20495;-53
2022/04/27 09:52:48;;;;;;;0.30;0.20;;;;;;;15.63;84.37;101019.22;5014011;28;20514;-52
2022/04/27 09:55:15;;;;;;;1.07;1.07;;;;;;;15.66;83.25;101013.72;5020234;28;20865;-52
2022/04/27 09:57:54;;;;;;;1.80;1.70;;;;;;;15.86;83.53;101010.25;5019242;28;20445;-53
2022/04/27 10:00:22;;;;;;;0.53;0.53;;;;;;;16.22;81.68;101013.31;5013589;28;20484;-53
2022/04/27 10:02:50;;;;;;;0.90;0.90;;;;;;;16.01;82.18;101014.16;5013189;28;20468;-52
2022/04/27 10:05:17;;;;;;;0.30;0.20;;;;;;;15.77;82.76;101021.38;5013749;28;20452;-51
2022/04/27 10:07:45;;;;;;;0.50;0.50;;;;;;;15.98;83.19;101019.66;5013259;28;20514;-52
2022/04/27 10:10:16;;;;;;;0.30;0.20;;;;;;;15.89;84.02;101015.50;5013441;28;20855;-52
2022/04/27 10:12:43;;;;;;;1.50;0.80;;;;;;;16.18;81.33;101013.50;5012079;28;20547;-52
2022/04/27 10:15:10;;;;;;;0.47;0.47;;;;;;;16.40;79.47;101013.50;5013285;28;20479;-52
2022/04/27 10:17:40;;;;;;;0.50;0.47;;;;;;;16.19;80.91;101008.09;5012100;28;20476;-51
2022/04/27 10:20:31;;;;;;;0.40;0.40;;;;;;;16.89;80.70;101004.28;5013212;28;20449;-52
2022/04/27 10:23:24;;;;;;;0.40;0.40;;;;;;;17.01;80.74;101009.13;4998294;28;20456;-52
2022/04/27 10:26:17;;;;;;;0.40;0.30;;;;;;;17.32;79.50;101005.97;5010473;28;20440;-50
2022/04/27 10:28:49;;;;;;;1.83;1.73;;;;;;;17.46;78.23;101002.66;5013058;28;20491;-51
2022/04/27 10:31:42;;;;;;;0.40;0.40;;;;;;;16.33;81.41;101010.22;5012987;28;20867;-51
2022/04/27 10:34:25;;;;;;;0.40;0.20;;;;;;;16.58;82.31;101000.22;5012835;28;20972;-51
2022/04/27 10:37:00;;;;;;;0.80;0.80;;;;;;;16.94;81.20;100998.72;5012675;28;20452;-51
2022/04/27 10:39:29;;;;;;;1.53;1.33;;;;;;;16.66;80.10;100993.63;5012892;28;20546;-52
2022/04/27 10:42:04;;;;;;;0.90;0.73;;;;;;;16.55;79.94;100992.25;5012916;28;20449;-51
2022/04/27 10:44:50;;;;;;;0.60;0.60;;;;;;;16.36;79.73;100996.66;5012817;28;20444;-51
2022/04/27 10:47:22;;;;;;;3.80;2.83;;;;;;;16.27;77.17;100994.34;5000760;28;20576;-51
2022/04/27 10:50:11;;;;;;;0.40;0.30;;;;;;;16.15;78.01;100990.34;5012798;28;20527;-51
2022/04/27 10:52:51;;;;;;;4.83;0.73;;;;;;;16.28;79.17;100990.72;5013169;28;20495;-51
2022/04/27 10:55:54;;;;;;;0.30;0.20;;;;;;;16.63;79.17;100985.72;5019748;28;20929;-51
2022/04/27 10:58:28;;;;;;;3.20;1.70;;;;;;;16.58;78.57;100978.72;5001480;28;20480;-51
2022/04/27 11:00:57;;;;;;;0.30;0.20;;;;;;;16.72;79.83;100994.28;5013170;28;20449;-51
2022/04/27 11:03:26;;;;;;;0.30;0.20;;;;;;;16.92;77.64;100990.72;5011161;28;20456;-51
2022/04/27 11:05:56;;;;;;;0.83;0.83;;;;;;;17.03;76.31;100991.13;5012661;28;20507;-52
2022/04/27 11:08:33;;;;;;;2.43;0.90;;;;;;;16.59;77.68;100990.34;5012592;28;20469;-51
2022/04/27 11:11:06;;;;;;;1.83;0.83;;;;;;;16.71;78.08;100992.50;5007415;28;20489;-51
2022/04/27 11:13:34;;;;;;;0.70;0.70;;;;;;;16.53;75.68;100990.59;5009472;28;20523;-50
2022/04/27 11:16:07;;;;;;;0.40;0.40;;;;;;;16.66;76.41;100994.50;5012327;28;20423;-51
2022/04/27 11:18:55;;;;;;;0.40;0.30;;;;;;;16.98;75.57;100990.44;5012392;28;20473;-51
2022/04/27 11:21:25;;;;;;;0.40;0.30;;;;;;;17.34;75.17;100993.31;5000427;28;20921;-51
2022/04/27 11:23:53;;;;;;;0.97;0.97;;;;;;;17.25;74.07;100992.84;5012180;28;20448;-51
2022/04/27 11:26:20;;;;;;;0.37;0.27;;;;;;;16.97;72.30;100991.38;5012106;28;20807;-51
2022/04/27 11:28:47;;;;;;;2.53;2.43;;;;;;;16.96;72.68;100988.78;5012290;28;20477;-51
2022/04/27 11:31:15;;;;;;;0.43;0.40;;;;;;;17.08;70.36;100985.56;5012004;28;20483;-52
2022/04/27 11:33:42;;;;;;;0.30;0.20;;;;;;;17.44;68.38;100983.03;5012365;28;20456;-50
2022/04/27 11:36:26;;;;;;;11.63;2.00;;;;;;;17.48;68.74;100982.81;5012158;28;20452;-51
2022/04/27 11:38:54;;;;;;;0.30;0.20;;;;;;;17.51;69.41;100979.09;5014926;28;20451;-51
2022/04/27 11:41:25;;;;;;;0.40;0.40;;;;;;;17.79;66.08;100985.91;5016369;28;20452;-51
2022/04/27 11:43:55;;;;;;;0.40;0.23;;;;;;;17.88;65.16;100980.09;5016139;28;20487;-51
2022/04/27 11:46:22;;;;;;;0.73;0.73;;;;;;;17.77;67.28;100983.31;5015959;28;20802;-50
2022/04/27 11:48:51;;;;;;;0.40;0.20;;;;;;;17.63;65.82;100985.72;5015742;28;20482;-51
2022/04/27 11:51:18;;;;;;;0.40;0.20;;;;;;;17.77;60.63;100978.78;5016129;28;20566;-51
2022/04/27 11:53:47;;;;;;;2.63;1.57;;;;;;;18.02;63.03;100973.13;5015788;28;20457;-51